createdAt,value
2022-12-11T00:00:16.755Z,8.02
2022-12-11T00:02:43.906Z,8.87
2022-12-11T00:05:11.326Z,8.18
2022-12-11T00:07:38.476Z,7.80
2022-12-11T00:10:06.375Z,8.02
2022-12-11T00:12:33.427Z,8.52
2022-12-11T00:15:00.476Z,7.82
2022-12-11T00:17:27.548Z,7.30
2022-12-11T00:19:54.606Z,8.10
2022-12-11T00:22:21.724Z,7.18
2022-12-11T00:24:48.869Z,6.45
2022-12-11T00:27:15.985Z,6.90
2022-12-11T00:29:43.289Z,7.32
2022-12-11T00:32:10.395Z,8.50
2022-12-11T00:34:37.597Z,8.60
2022-12-11T00:37:04.725Z,7.22
2022-12-11T00:39:31.816Z,7.22
2022-12-11T00:41:58.989Z,7.30
2022-12-11T00:44:26.068Z,9.30
2022-12-11T00:46:53.116Z,7.97
2022-12-11T00:49:20.168Z,7.60
2022-12-11T00:51:47.233Z,7.70
2022-12-11T00:54:14.280Z,6.90
2022-12-11T00:56:42.193Z,6.95
2022-12-11T00:59:09.679Z,7.13
2022-12-11T01:01:36.780Z,7.00
2022-12-11T01:04:03.874Z,7.20
2022-12-11T01:06:30.963Z,6.88
2022-12-11T01:09:16.645Z,6.38
2022-12-11T01:11:43.828Z,8.45
2022-12-11T01:14:11.910Z,7.28
2022-12-11T01:16:39.075Z,7.75
2022-12-11T01:19:06.178Z,7.55
2022-12-11T01:21:33.254Z,7.53
2022-12-11T01:24:00.303Z,6.80
2022-12-11T01:26:27.582Z,6.30
2022-12-11T01:28:54.635Z,7.57
2022-12-11T01:31:22.156Z,6.95
2022-12-11T01:33:49.763Z,6.00
2022-12-11T01:36:19.453Z,6.18
2022-12-11T01:38:47.893Z,6.03
2022-12-11T01:41:15.639Z,6.22
2022-12-11T01:44:03.156Z,6.93
2022-12-11T01:46:31.632Z,6.55
2022-12-11T01:49:00.951Z,6.55
2022-12-11T01:51:30.033Z,9.30
2022-12-11T01:54:02.023Z,7.07
2022-12-11T01:56:32.593Z,6.85
2022-12-11T01:59:06.926Z,7.40
2022-12-11T02:01:42.868Z,6.88
2022-12-11T02:04:11.094Z,7.78
2022-12-11T02:06:44.763Z,7.07
2022-12-11T02:09:17.162Z,6.57
2022-12-11T02:12:08.775Z,7.03
2022-12-11T02:15:06.957Z,6.47
2022-12-11T02:17:59.748Z,6.43
2022-12-11T02:20:54.116Z,6.45
2022-12-11T02:23:41.967Z,6.22
2022-12-11T02:26:18.679Z,6.05
2022-12-11T02:29:00.783Z,7.30
2022-12-11T02:31:34.624Z,6.22
2022-12-11T02:34:10.252Z,5.68
2022-12-11T02:36:41.504Z,5.20
2022-12-11T02:39:12.945Z,7.50
2022-12-11T02:41:46.539Z,6.18
2022-12-11T02:44:17.183Z,7.13
2022-12-11T02:46:45.343Z,6.50
2022-12-11T02:49:14.679Z,6.00
2022-12-11T02:51:43.292Z,9.40
2022-12-11T02:54:20.503Z,7.32
2022-12-11T02:56:59.667Z,6.53
2022-12-11T02:59:35.126Z,7.00
2022-12-11T03:02:03.476Z,7.43
2022-12-11T03:04:31.656Z,6.80
2022-12-11T03:07:11.908Z,6.63
2022-12-11T03:09:43.932Z,7.88
2022-12-11T03:12:13.692Z,6.00
2022-12-11T03:14:42.220Z,5.27
2022-12-11T03:17:15.360Z,4.85
2022-12-11T03:19:55.307Z,5.50
2022-12-11T03:22:33.632Z,5.35
2022-12-11T03:25:05.198Z,5.27
2022-12-11T03:27:47.517Z,5.43
2022-12-11T03:30:18.324Z,4.63
2022-12-11T03:32:56.044Z,5.00
2022-12-11T03:35:37.817Z,4.75
2022-12-11T03:38:49.057Z,5.20
2022-12-11T03:41:19.937Z,4.55
2022-12-11T03:43:49.521Z,4.60
2022-12-11T03:46:18.662Z,4.15
2022-12-11T03:48:47.524Z,4.80
2022-12-11T03:51:16.912Z,4.30
2022-12-11T03:53:45.801Z,4.00
2022-12-11T03:56:14.534Z,4.70
2022-12-11T03:58:41.586Z,4.30
2022-12-11T04:01:10.326Z,4.03
2022-12-11T04:03:38.549Z,4.55
2022-12-11T04:06:05.779Z,4.03
2022-12-11T04:08:32.913Z,4.50
2022-12-11T04:11:18.714Z,4.23
2022-12-11T04:13:45.839Z,4.93
2022-12-11T04:16:12.921Z,4.13
2022-12-11T04:18:58.798Z,5.15
2022-12-11T04:21:44.381Z,6.77
2022-12-11T04:24:15.278Z,5.88
2022-12-11T04:26:47.117Z,5.20
2022-12-11T04:29:15.118Z,4.88
2022-12-11T04:31:42.145Z,4.53
2022-12-11T04:34:09.610Z,4.88
2022-12-11T04:36:36.970Z,4.30
2022-12-11T04:39:05.933Z,4.63
2022-12-11T04:41:34.437Z,4.20
2022-12-11T04:44:01.529Z,4.22
2022-12-11T04:46:28.674Z,4.00
2022-12-11T04:48:57.903Z,4.03
2022-12-11T04:51:25.433Z,3.60
2022-12-11T04:53:54.027Z,4.38
2022-12-11T04:56:21.646Z,4.40
2022-12-11T04:58:48.745Z,5.72
2022-12-11T05:01:21.955Z,5.10
2022-12-11T05:03:49.271Z,3.95
2022-12-11T05:06:16.414Z,4.35
2022-12-11T05:08:45.065Z,4.20
2022-12-11T05:11:14.750Z,3.60
2022-12-11T05:13:42.766Z,3.90
2022-12-11T05:16:12.364Z,3.67
2022-12-11T05:18:39.575Z,3.33
2022-12-11T05:21:12.979Z,3.85
2022-12-11T05:23:40.242Z,4.07
2022-12-11T05:26:11.243Z,4.00
2022-12-11T05:28:39.371Z,3.80
2022-12-11T05:31:11.648Z,3.70
2022-12-11T05:33:39.106Z,3.22
2022-12-11T05:36:07.342Z,3.60
2022-12-11T05:38:34.584Z,3.40
2022-12-11T05:41:04.212Z,3.60
2022-12-11T05:43:33.836Z,3.40
2022-12-11T05:46:10.787Z,3.55
2022-12-11T05:48:38.987Z,6.63
2022-12-11T05:51:08.292Z,4.00
2022-12-11T05:53:39.875Z,5.00
2022-12-11T05:56:10.915Z,5.00
2022-12-11T05:58:38.687Z,4.68
2022-12-11T06:01:20.844Z,4.93
2022-12-11T06:03:48.363Z,7.07
2022-12-11T06:06:15.733Z,5.25
2022-12-11T06:08:42.862Z,4.83
2022-12-11T06:11:11.444Z,5.13
2022-12-11T06:13:38.772Z,4.22
2022-12-11T06:16:07.750Z,4.60
2022-12-11T06:18:39.592Z,5.50
2022-12-11T06:21:17.969Z,5.50
2022-12-11T06:23:46.763Z,4.75
2022-12-11T06:26:15.848Z,5.50
2022-12-11T06:28:42.960Z,5.93
2022-12-11T06:31:10.196Z,4.18
2022-12-11T06:33:37.345Z,4.28
2022-12-11T06:36:07.099Z,3.80
2022-12-11T06:38:34.188Z,4.05
2022-12-11T06:41:04.722Z,3.72
2022-12-11T06:43:32.509Z,5.25
2022-12-11T06:46:03.870Z,4.40
2022-12-11T06:48:31.688Z,4.57
2022-12-11T06:50:58.942Z,4.00
2022-12-11T06:53:26.078Z,3.90
2022-12-11T06:55:53.141Z,3.57
2022-12-11T06:58:20.188Z,3.90
2022-12-11T07:00:47.338Z,4.20
2022-12-11T07:03:14.510Z,3.80
2022-12-11T07:05:41.545Z,4.07
2022-12-11T07:08:08.703Z,3.70
2022-12-11T07:10:35.821Z,3.72
2022-12-11T07:13:02.898Z,5.50
2022-12-11T07:15:29.937Z,5.25
2022-12-11T07:17:56.958Z,4.53
2022-12-11T07:20:24.006Z,4.70
2022-12-11T07:22:51.190Z,5.15
2022-12-11T07:25:18.241Z,4.97
2022-12-11T07:27:45.262Z,5.25
2022-12-11T07:30:12.979Z,4.55
2022-12-11T07:32:40.071Z,4.18
2022-12-11T07:35:07.505Z,4.55
2022-12-11T07:37:34.557Z,4.83
2022-12-11T07:40:01.614Z,5.47
2022-12-11T07:42:28.658Z,6.13
2022-12-11T07:44:55.688Z,4.47
2022-12-11T07:47:22.731Z,4.47
2022-12-11T07:49:49.838Z,5.03
2022-12-11T07:52:16.898Z,5.07
2022-12-11T07:54:43.941Z,4.40
2022-12-11T07:57:14.148Z,5.00
2022-12-11T07:59:41.822Z,4.75
2022-12-11T08:02:11.815Z,4.03
2022-12-11T08:04:39.292Z,4.05
2022-12-11T08:07:06.404Z,4.22
2022-12-11T08:09:33.528Z,4.00
2022-12-11T08:12:00.654Z,4.35
2022-12-11T08:14:27.790Z,3.78
2022-12-11T08:16:54.948Z,4.03
2022-12-11T08:19:22.108Z,6.35
2022-12-11T08:21:49.160Z,12.52
2022-12-11T08:24:20.113Z,7.32
2022-12-11T08:26:48.200Z,6.65
2022-12-11T08:29:15.432Z,6.90
2022-12-11T08:31:42.707Z,6.03
2022-12-11T08:34:13.686Z,5.00
2022-12-11T08:36:41.219Z,4.70
2022-12-11T08:39:08.284Z,5.10
2022-12-11T08:41:35.371Z,5.80
2022-12-11T08:44:02.567Z,4.72
2022-12-11T08:46:32.291Z,5.85
2022-12-11T08:48:59.950Z,12.55
2022-12-11T08:51:29.234Z,8.38
2022-12-11T08:53:58.185Z,7.47
2022-12-11T08:56:25.600Z,9.60
2022-12-11T08:58:53.363Z,11.73
2022-12-11T09:01:24.383Z,10.52
2022-12-11T09:03:53.087Z,10.00
2022-12-11T09:06:22.619Z,9.90
2022-12-11T09:08:52.893Z,9.35
2022-12-11T09:11:26.267Z,8.90
2022-12-11T09:13:53.944Z,7.80
2022-12-11T09:16:23.191Z,7.38
2022-12-11T09:18:52.246Z,6.57
2022-12-11T09:21:21.318Z,7.03
2022-12-11T09:23:48.730Z,6.73
2022-12-11T09:26:17.863Z,6.63
2022-12-11T09:28:47.361Z,7.63
2022-12-11T09:31:23.560Z,6.72
2022-12-11T09:33:51.990Z,6.82
2022-12-11T09:36:19.273Z,6.07
2022-12-11T09:38:46.913Z,5.60
2022-12-11T09:41:36.082Z,6.40
2022-12-11T09:44:42.446Z,6.20
2022-12-11T09:47:33.757Z,6.40
2022-12-11T09:50:09.613Z,5.70
2022-12-11T09:52:36.649Z,6.20
2022-12-11T09:55:15.405Z,6.10
2022-12-11T09:58:20.797Z,5.35
2022-12-11T10:00:53.897Z,5.40
2022-12-11T10:03:58.334Z,5.10
2022-12-11T10:06:32.471Z,5.07
2022-12-11T10:09:15.201Z,4.82
2022-12-11T10:12:07.345Z,4.72
2022-12-11T10:14:49.895Z,4.75
2022-12-11T10:17:32.219Z,4.50
2022-12-11T10:20:11.243Z,4.80
2022-12-11T10:22:38.438Z,4.72
2022-12-11T10:25:19.062Z,4.40
2022-12-11T10:27:46.507Z,4.13
2022-12-11T10:30:18.525Z,4.13
2022-12-11T10:32:54.506Z,4.43
2022-12-11T10:35:34.864Z,4.32
2022-12-11T10:38:19.771Z,4.67
2022-12-11T10:41:16.615Z,6.30
2022-12-11T10:43:46.245Z,5.53
2022-12-11T10:46:24.973Z,5.85
2022-12-11T10:49:01.837Z,6.03
2022-12-11T10:51:31.996Z,6.78
2022-12-11T10:54:17.295Z,5.80
2022-12-11T10:56:48.133Z,7.28
2022-12-11T10:59:40.610Z,7.30
2022-12-11T11:02:24.163Z,6.90
2022-12-11T11:04:52.917Z,6.53
2022-12-11T11:07:21.415Z,6.97
2022-12-11T11:09:49.122Z,6.38
2022-12-11T11:12:26.994Z,7.33
2022-12-11T11:15:05.903Z,6.45
2022-12-11T11:17:52.763Z,5.55
2022-12-11T11:20:25.476Z,6.93
2022-12-11T11:22:58.617Z,7.07
2022-12-11T11:25:32.670Z,6.13
2022-12-11T11:28:06.368Z,5.53
2022-12-11T11:30:39.459Z,5.95
2022-12-11T11:33:13.419Z,5.35
2022-12-11T11:35:50.875Z,4.97
2022-12-11T11:38:20.939Z,5.68
2022-12-11T11:41:14.916Z,5.47
2022-12-11T11:43:46.708Z,4.83
2022-12-11T11:46:24.327Z,4.70
2022-12-11T11:49:09.979Z,4.63
2022-12-11T11:51:50.453Z,4.45
2022-12-11T11:54:36.373Z,4.30
2022-12-11T11:57:36.608Z,4.53
2022-12-11T12:00:15.189Z,6.33
2022-12-11T12:02:42.492Z,5.13
2022-12-11T12:05:13.713Z,5.20
2022-12-11T12:07:46.739Z,5.75
2022-12-11T12:10:28.689Z,6.25
2022-12-11T12:13:48.704Z,5.27
2022-12-11T12:16:51.071Z,4.47
2022-12-11T12:19:30.838Z,5.07
2022-12-11T12:22:07.727Z,4.93
2022-12-11T12:24:51.286Z,5.67
2022-12-11T12:27:51.714Z,8.20
2022-12-11T12:30:22.997Z,6.93
2022-12-11T12:33:19.181Z,6.78
2022-12-11T12:36:25.608Z,6.50
2022-12-11T12:39:10.909Z,5.82
2022-12-11T12:42:05.598Z,5.72
2022-12-11T12:44:50.386Z,7.38
2022-12-11T12:47:18.701Z,7.50
2022-12-11T12:49:51.210Z,7.70
2022-12-11T12:52:25.890Z,7.00
2022-12-11T12:55:16.380Z,7.87
2022-12-11T12:58:05.478Z,11.07
2022-12-11T13:00:42.915Z,7.80
2022-12-11T13:03:32.458Z,7.70
2022-12-11T13:06:06.133Z,7.35
2022-12-11T13:08:43.262Z,7.15
2022-12-11T13:11:12.667Z,11.30
2022-12-11T13:14:01.766Z,11.27
2022-12-11T13:16:46.687Z,9.13
2022-12-11T13:19:25.831Z,7.68
2022-12-11T13:22:23.164Z,6.00
2022-12-11T13:24:53.313Z,6.57
2022-12-11T13:27:37.566Z,19.40
2022-12-11T13:30:19.939Z,18.40
2022-12-11T13:33:03.068Z,15.18
2022-12-11T13:35:31.842Z,17.33
2022-12-11T13:38:07.254Z,16.08
2022-12-11T13:40:42.658Z,14.07
2022-12-11T13:43:22.183Z,13.18
2022-12-11T13:45:51.525Z,13.53
2022-12-11T13:48:43.879Z,18.42
2022-12-11T13:51:17.910Z,22.20
2022-12-11T13:53:45.088Z,22.33
2022-12-11T13:56:20.451Z,21.43
2022-12-11T13:58:48.218Z,18.80
2022-12-11T14:01:35.271Z,20.93
2022-12-11T14:04:04.684Z,18.43
2022-12-11T14:06:34.363Z,15.68
2022-12-11T14:09:03.345Z,17.07
2022-12-11T14:11:35.208Z,17.10
2022-12-11T14:14:06.867Z,17.45
2022-12-11T14:16:34.567Z,16.92
2022-12-11T14:19:07.124Z,16.98
2022-12-11T14:21:34.499Z,17.45
2022-12-11T14:24:03.549Z,16.33
2022-12-11T14:26:34.234Z,15.45
2022-12-11T14:29:02.665Z,13.25
2022-12-11T14:31:44.108Z,13.82
2022-12-11T14:34:16.977Z,13.23
2022-12-11T14:36:45.421Z,9.63
2022-12-11T14:39:46.004Z,9.07
2022-12-11T14:42:27.123Z,9.60
2022-12-11T14:45:00.451Z,23.02
2022-12-11T14:47:31.908Z,13.80
2022-12-11T14:50:22.205Z,10.98
2022-12-11T14:52:53.833Z,7.32
2022-12-11T14:55:23.733Z,6.88
2022-12-11T14:58:14.129Z,5.90
2022-12-11T15:00:41.341Z,4.57
2022-12-11T15:03:17.381Z,4.95
2022-12-11T15:05:56.661Z,4.50
2022-12-11T15:08:30.285Z,4.55
2022-12-11T15:10:57.345Z,3.80
2022-12-11T15:13:24.791Z,5.00
2022-12-11T15:15:53.836Z,4.07
2022-12-11T15:18:33.593Z,7.18
2022-12-11T15:21:07.264Z,9.02
2022-12-11T15:23:45.641Z,8.50
2022-12-11T15:26:12.822Z,15.60
2022-12-11T15:28:39.942Z,22.80
2022-12-11T15:31:32.214Z,20.58
2022-12-11T15:33:59.638Z,16.63
2022-12-11T15:36:35.689Z,13.10
2022-12-11T15:39:05.582Z,9.65
2022-12-11T15:41:34.578Z,10.20
2022-12-11T15:44:03.778Z,7.95
2022-12-11T15:46:36.218Z,7.68
2022-12-11T15:49:12.526Z,6.87
2022-12-11T15:51:42.832Z,6.13
2022-12-11T15:54:10.742Z,5.32
2022-12-11T15:56:37.849Z,6.93
2022-12-11T15:59:06.723Z,6.38
2022-12-11T16:01:34.670Z,6.05
2022-12-11T16:04:05.240Z,5.50
2022-12-11T16:06:33.174Z,6.05
2022-12-11T16:09:01.070Z,5.30
2022-12-11T16:11:28.289Z,6.13
2022-12-11T16:13:55.322Z,6.18
2022-12-11T16:16:22.501Z,5.50
2022-12-11T16:18:49.812Z,5.90
2022-12-11T16:21:21.184Z,5.68
2022-12-11T16:23:48.874Z,5.78
2022-12-11T16:26:15.971Z,5.20
2022-12-11T16:28:43.291Z,5.13
2022-12-11T16:31:14.763Z,6.15
2022-12-11T16:33:41.907Z,5.47
2022-12-11T16:36:17.336Z,5.22
2022-12-11T16:38:52.910Z,5.60
2022-12-11T16:41:22.696Z,4.75
2022-12-11T16:43:49.951Z,4.88
2022-12-11T16:46:22.059Z,4.00
2022-12-11T16:48:49.337Z,3.80
2022-12-11T16:51:16.807Z,3.65
2022-12-11T16:53:44.046Z,3.78
2022-12-11T16:56:11.147Z,3.60
2022-12-11T16:58:38.403Z,3.80
2022-12-11T17:01:11.972Z,3.33
2022-12-11T17:03:39.783Z,3.85
2022-12-11T17:06:11.481Z,3.50
2022-12-11T17:08:39.127Z,3.30
2022-12-11T17:11:07.580Z,3.35
2022-12-11T17:13:36.342Z,3.45
2022-12-11T17:16:12.578Z,3.25
2022-12-11T17:18:40.018Z,3.10
2022-12-11T17:21:12.909Z,3.00
2022-12-11T17:23:40.816Z,3.00
2022-12-11T17:26:10.917Z,2.85
2022-12-11T17:28:39.058Z,3.03
2022-12-11T17:31:15.106Z,2.80
2022-12-11T17:33:42.693Z,3.05
2022-12-11T17:36:17.953Z,2.87
2022-12-11T17:38:45.177Z,2.85
2022-12-11T17:41:20.057Z,3.47
2022-12-11T17:43:52.440Z,3.88
2022-12-11T17:46:20.594Z,3.70
2022-12-11T17:48:48.594Z,3.37
2022-12-11T17:51:24.432Z,5.90
2022-12-11T17:53:55.122Z,4.30
2022-12-11T17:56:22.592Z,3.92
2022-12-11T17:58:49.713Z,4.07
2022-12-11T18:01:17.140Z,3.63
2022-12-11T18:03:44.365Z,4.85
2022-12-11T18:06:14.408Z,4.45
2022-12-11T18:08:42.686Z,4.00
2022-12-11T18:11:15.540Z,4.83
2022-12-11T18:13:44.578Z,4.95
2022-12-11T18:16:17.844Z,4.40
2022-12-11T18:18:46.406Z,4.95
2022-12-11T18:21:34.636Z,5.32
2022-12-11T18:24:02.062Z,4.90
2022-12-11T18:26:29.154Z,5.25
2022-12-11T18:28:56.264Z,4.55
2022-12-11T18:31:24.210Z,4.25
2022-12-11T18:33:52.150Z,4.13
2022-12-11T18:36:20.296Z,3.92
2022-12-11T18:38:48.180Z,3.75
2022-12-11T18:41:17.125Z,4.15
2022-12-11T18:43:44.205Z,3.38
2022-12-11T18:46:14.478Z,4.50
2022-12-11T18:48:43.241Z,4.20
2022-12-11T18:51:17.771Z,3.65
2022-12-11T18:53:45.117Z,3.60
2022-12-11T18:56:16.025Z,3.95
2022-12-11T18:58:43.498Z,6.72
2022-12-11T19:01:15.290Z,4.00
2022-12-11T19:03:42.526Z,3.75
2022-12-11T19:06:15.443Z,4.35
2022-12-11T19:08:42.734Z,3.67
2022-12-11T19:11:13.394Z,6.07
2022-12-11T19:13:40.447Z,4.10
2022-12-11T19:16:07.602Z,4.45
2022-12-11T19:18:34.740Z,4.25
2022-12-11T19:21:08.838Z,4.68
2022-12-11T19:23:37.107Z,5.70
2022-12-11T19:26:05.218Z,4.15
2022-12-11T19:28:34.272Z,10.93
2022-12-11T19:31:01.377Z,5.95
2022-12-11T19:33:28.471Z,5.35
2022-12-11T19:36:10.312Z,5.80
2022-12-11T19:38:39.580Z,5.05
2022-12-11T19:41:08.999Z,4.75
2022-12-11T19:43:36.627Z,4.53
2022-12-11T19:46:04.975Z,4.30
2022-12-11T19:48:32.907Z,4.33
2022-12-11T19:51:30.065Z,4.53
2022-12-11T19:53:57.408Z,5.40
2022-12-11T19:56:24.515Z,8.75
2022-12-11T19:58:51.706Z,5.68
2022-12-11T20:01:24.647Z,7.55
2022-12-11T20:03:53.459Z,6.30
2022-12-11T20:06:20.727Z,6.15
2022-12-11T20:08:48.175Z,6.22
2022-12-11T20:11:18.766Z,6.57
2022-12-11T20:13:50.263Z,5.93
2022-12-11T20:16:33.338Z,5.53
2022-12-11T20:19:06.081Z,4.50
2022-12-11T20:21:33.173Z,4.80
2022-12-11T20:24:00.228Z,4.73
2022-12-11T20:26:27.460Z,4.50
2022-12-11T20:28:54.563Z,4.70
2022-12-11T20:31:24.985Z,4.65
2022-12-11T20:33:55.643Z,4.43
2022-12-11T20:36:23.509Z,4.20
2022-12-11T20:38:51.357Z,6.13
2022-12-11T20:41:24.016Z,5.07
2022-12-11T20:43:53.861Z,4.40
2022-12-11T20:46:23.981Z,4.68
2022-12-11T20:48:51.397Z,4.25
2022-12-11T20:51:25.781Z,3.80
2022-12-11T20:53:59.127Z,3.57
2022-12-11T20:56:31.124Z,4.90
2022-12-11T20:58:59.320Z,5.07
2022-12-11T21:01:29.710Z,3.65
2022-12-11T21:03:57.350Z,3.80
2022-12-11T21:06:25.817Z,3.92
2022-12-11T21:08:53.359Z,3.80
2022-12-11T21:11:20.832Z,4.32
2022-12-11T21:13:47.893Z,4.78
2022-12-11T21:16:15.130Z,11.30
2022-12-11T21:18:44.120Z,6.97
2022-12-11T21:21:11.214Z,6.20
2022-12-11T21:23:38.637Z,7.28
2022-12-11T21:26:05.966Z,8.07
2022-12-11T21:28:35.418Z,10.48
2022-12-11T21:31:05.562Z,10.23
2022-12-11T21:33:32.677Z,11.52
2022-12-11T21:36:00.585Z,9.40
2022-12-11T21:38:28.621Z,9.35
2022-12-11T21:40:56.436Z,11.68
2022-12-11T21:43:24.693Z,11.88
2022-12-11T21:46:00.850Z,9.95
2022-12-11T21:48:28.886Z,10.23
2022-12-11T21:50:56.249Z,8.97
2022-12-11T21:53:23.291Z,7.47
2022-12-11T21:55:50.419Z,7.63
2022-12-11T21:58:17.518Z,7.15
2022-12-11T22:00:45.569Z,7.60
2022-12-11T22:03:12.687Z,6.95
2022-12-11T22:05:39.729Z,6.32
2022-12-11T22:08:07.162Z,5.95
2022-12-11T22:10:34.290Z,5.97
2022-12-11T22:13:01.326Z,5.32
2022-12-11T22:15:28.378Z,5.03
2022-12-11T22:17:55.457Z,4.93
2022-12-11T22:20:22.548Z,5.13
2022-12-11T22:22:49.682Z,12.70
2022-12-11T22:25:16.828Z,9.93
2022-12-11T22:27:43.906Z,8.85
2022-12-11T22:30:11.750Z,7.85
2022-12-11T22:32:38.828Z,10.32
2022-12-11T22:35:06.398Z,8.50
2022-12-11T22:37:33.453Z,13.65
2022-12-11T22:40:01.055Z,13.43
2022-12-11T22:42:28.094Z,12.17
2022-12-11T22:44:55.131Z,11.00
2022-12-11T22:47:22.310Z,12.37
2022-12-11T22:49:49.455Z,12.05
2022-12-11T22:52:16.556Z,12.05
2022-12-11T22:54:43.626Z,11.40
2022-12-11T22:57:10.910Z,10.40
2022-12-11T22:59:37.963Z,11.75
2022-12-11T23:02:05.050Z,10.50
2022-12-11T23:04:32.323Z,10.23
2022-12-11T23:06:59.411Z,10.00
2022-12-11T23:09:26.511Z,9.40
2022-12-11T23:11:53.656Z,9.70
2022-12-11T23:14:20.715Z,9.20
2022-12-11T23:16:48.005Z,8.70
2022-12-11T23:19:15.336Z,7.78
2022-12-11T23:21:43.041Z,8.00
2022-12-11T23:24:10.280Z,7.82
2022-12-11T23:26:37.627Z,6.90
2022-12-11T23:29:05.609Z,7.50
2022-12-11T23:31:33.110Z,7.75
2022-12-11T23:34:00.588Z,7.30
2022-12-11T23:36:30.579Z,6.57
2022-12-11T23:38:57.656Z,6.70
2022-12-11T23:41:25.021Z,6.43
2022-12-11T23:43:52.605Z,6.78
2022-12-11T23:46:22.301Z,6.70
2022-12-11T23:48:50.497Z,7.72
2022-12-11T23:51:18.936Z,7.95
2022-12-11T23:53:46.750Z,6.35
2022-12-11T23:56:18.483Z,6.25
2022-12-11T23:58:46.145Z,6.70
